sensor_id;sensor_type;location;lat;lon;timestamp;temperature;humidity
31747;DHT22;18319;48.974;8.462;2022-08-19T00:01:29;20.30;77.20
31747;DHT22;18319;48.974;8.462;2022-08-19T00:03:56;20.30;79.30
31747;DHT22;18319;48.974;8.462;2022-08-19T00:06:23;20.30;80.60
31747;DHT22;18319;48.974;8.462;2022-08-19T00:08:50;20.30;81.80
31747;DHT22;18319;48.974;8.462;2022-08-19T00:11:17;20.30;82.60
31747;DHT22;18319;48.974;8.462;2022-08-19T00:13:44;20.40;83.00
31747;DHT22;18319;48.974;8.462;2022-08-19T00:16:11;20.40;82.50
31747;DHT22;18319;48.974;8.462;2022-08-19T00:18:40;20.40;83.50
31747;DHT22;18319;48.974;8.462;2022-08-19T00:23:35;20.40;82.50
31747;DHT22;18319;48.974;8.462;2022-08-19T00:26:02;20.40;83.60
31747;DHT22;18319;48.974;8.462;2022-08-19T00:28:29;20.40;83.20
31747;DHT22;18319;48.974;8.462;2022-08-19T00:30:56;20.40;83.40
31747;DHT22;18319;48.974;8.462;2022-08-19T00:33:23;20.50;82.60
31747;DHT22;18319;48.974;8.462;2022-08-19T00:35:51;20.50;82.30
31747;DHT22;18319;48.974;8.462;2022-08-19T00:38:18;20.50;81.20
31747;DHT22;18319;48.974;8.462;2022-08-19T00:40:48;20.50;80.90
31747;DHT22;18319;48.974;8.462;2022-08-19T00:43:19;20.50;80.60
31747;DHT22;18319;48.974;8.462;2022-08-19T00:45:46;20.50;80.30
31747;DHT22;18319;48.974;8.462;2022-08-19T00:48:14;20.50;81.30
31747;DHT22;18319;48.974;8.462;2022-08-19T00:50:43;20.50;83.00
31747;DHT22;18319;48.974;8.462;2022-08-19T00:53:14;20.50;82.70
31747;DHT22;18319;48.974;8.462;2022-08-19T00:55:45;20.50;83.30
31747;DHT22;18319;48.974;8.462;2022-08-19T00:58:15;20.50;84.90
31747;DHT22;18319;48.974;8.462;2022-08-19T01:00:43;20.50;87.40
31747;DHT22;18319;48.974;8.462;2022-08-19T01:03:12;20.50;89.30
31747;DHT22;18319;48.974;8.462;2022-08-19T01:05:41;20.50;90.50
31747;DHT22;18319;48.974;8.462;2022-08-19T01:08:09;20.50;91.50
31747;DHT22;18319;48.974;8.462;2022-08-19T01:10:41;20.50;92.10
31747;DHT22;18319;48.974;8.462;2022-08-19T01:13:09;20.50;91.90
31747;DHT22;18319;48.974;8.462;2022-08-19T01:15:43;20.50;92.10
31747;DHT22;18319;48.974;8.462;2022-08-19T01:18:13;20.50;92.30
31747;DHT22;18319;48.974;8.462;2022-08-19T01:20:41;20.50;92.20
31747;DHT22;18319;48.974;8.462;2022-08-19T01:23:10;20.40;91.00
31747;DHT22;18319;48.974;8.462;2022-08-19T01:25:45;20.50;89.20
31747;DHT22;18319;48.974;8.462;2022-08-19T01:28:17;20.40;90.90
31747;DHT22;18319;48.974;8.462;2022-08-19T01:30:45;20.40;91.80
31747;DHT22;18319;48.974;8.462;2022-08-19T01:33:12;20.40;92.90
31747;DHT22;18319;48.974;8.462;2022-08-19T01:35:43;20.40;93.10
31747;DHT22;18319;48.974;8.462;2022-08-19T01:38:21;20.40;93.60
31747;DHT22;18319;48.974;8.462;2022-08-19T01:40:49;20.40;94.20
31747;DHT22;18319;48.974;8.462;2022-08-19T01:43:16;20.30;95.00
31747;DHT22;18319;48.974;8.462;2022-08-19T01:45:45;20.30;95.80
31747;DHT22;18319;48.974;8.462;2022-08-19T01:48:12;20.30;96.80
31747;DHT22;18319;48.974;8.462;2022-08-19T01:50:39;20.20;97.50
31747;DHT22;18319;48.974;8.462;2022-08-19T01:53:10;20.20;98.30
31747;DHT22;18319;48.974;8.462;2022-08-19T01:55:40;20.20;99.20
31747;DHT22;18319;48.974;8.462;2022-08-19T01:58:12;20.20;99.90
31747;DHT22;18319;48.974;8.462;2022-08-19T02:00:40;20.20;99.90
31747;DHT22;18319;48.974;8.462;2022-08-19T02:03:07;20.10;99.90
31747;DHT22;18319;48.974;8.462;2022-08-19T02:05:35;20.10;99.90
31747;DHT22;18319;48.974;8.462;2022-08-19T02:08:02;20.10;99.90
31747;DHT22;18319;48.974;8.462;2022-08-19T02:10:31;20.10;99.90
31747;DHT22;18319;48.974;8.462;2022-08-19T02:12:57;20.00;99.90
31747;DHT22;18319;48.974;8.462;2022-08-19T02:15:24;20.00;99.90
31747;DHT22;18319;48.974;8.462;2022-08-19T02:17:52;20.00;99.90
31747;DHT22;18319;48.974;8.462;2022-08-19T02:20:19;20.00;99.90
31747;DHT22;18319;48.974;8.462;2022-08-19T02:22:46;20.10;99.90
31747;DHT22;18319;48.974;8.462;2022-08-19T02:25:13;20.10;99.90
31747;DHT22;18319;48.974;8.462;2022-08-19T02:27:42;20.00;99.90
31747;DHT22;18319;48.974;8.462;2022-08-19T02:30:12;20.00;99.90
31747;DHT22;18319;48.974;8.462;2022-08-19T02:32:41;20.00;99.90
31747;DHT22;18319;48.974;8.462;2022-08-19T02:35:08;20.00;99.90
31747;DHT22;18319;48.974;8.462;2022-08-19T02:37:35;20.00;99.90
31747;DHT22;18319;48.974;8.462;2022-08-19T02:40:19;20.00;99.90
31747;DHT22;18319;48.974;8.462;2022-08-19T02:42:48;20.00;99.90
31747;DHT22;18319;48.974;8.462;2022-08-19T02:45:14;19.90;99.90
31747;DHT22;18319;48.974;8.462;2022-08-19T02:47:41;19.90;99.90
31747;DHT22;18319;48.974;8.462;2022-08-19T02:50:09;19.90;99.90
31747;DHT22;18319;48.974;8.462;2022-08-19T02:52:36;19.90;99.90
31747;DHT22;18319;48.974;8.462;2022-08-19T02:55:04;19.90;99.90
31747;DHT22;18319;48.974;8.462;2022-08-19T02:57:31;19.90;99.90
31747;DHT22;18319;48.974;8.462;2022-08-19T03:00:02;19.90;99.90
31747;DHT22;18319;48.974;8.462;2022-08-19T03:02:30;19.90;99.90
31747;DHT22;18319;48.974;8.462;2022-08-19T03:04:57;19.90;99.90
31747;DHT22;18319;48.974;8.462;2022-08-19T03:07:23;19.90;99.90
31747;DHT22;18319;48.974;8.462;2022-08-19T03:09:50;19.90;99.90
31747;DHT22;18319;48.974;8.462;2022-08-19T03:12:17;19.90;99.90
31747;DHT22;18319;48.974;8.462;2022-08-19T03:14:44;19.90;99.90
31747;DHT22;18319;48.974;8.462;2022-08-19T03:17:13;19.80;99.90
31747;DHT22;18319;48.974;8.462;2022-08-19T03:19:40;19.80;99.90
31747;DHT22;18319;48.974;8.462;2022-08-19T03:22:08;19.80;99.90
31747;DHT22;18319;48.974;8.462;2022-08-19T03:24:35;19.80;99.90
31747;DHT22;18319;48.974;8.462;2022-08-19T03:27:02;19.80;99.90
31747;DHT22;18319;48.974;8.462;2022-08-19T03:29:31;19.80;99.90
31747;DHT22;18319;48.974;8.462;2022-08-19T03:31:59;19.70;99.90
31747;DHT22;18319;48.974;8.462;2022-08-19T03:34:30;19.70;99.90
31747;DHT22;18319;48.974;8.462;2022-08-19T03:36:59;19.60;99.90
31747;DHT22;18319;48.974;8.462;2022-08-19T03:39:26;19.60;99.90
31747;DHT22;18319;48.974;8.462;2022-08-19T03:41:54;19.60;99.90
31747;DHT22;18319;48.974;8.462;2022-08-19T03:44:23;19.60;99.90
31747;DHT22;18319;48.974;8.462;2022-08-19T03:46:53;19.50;99.90
31747;DHT22;18319;48.974;8.462;2022-08-19T03:49:22;19.50;99.90
31747;DHT22;18319;48.974;8.462;2022-08-19T03:51:51;19.40;99.90
31747;DHT22;18319;48.974;8.462;2022-08-19T03:54:20;19.40;99.90
31747;DHT22;18319;48.974;8.462;2022-08-19T03:56:49;19.40;99.90
31747;DHT22;18319;48.974;8.462;2022-08-19T03:59:20;19.40;99.90
31747;DHT22;18319;48.974;8.462;2022-08-19T04:01:51;19.30;99.90
31747;DHT22;18319;48.974;8.462;2022-08-19T04:04:18;19.30;99.90
31747;DHT22;18319;48.974;8.462;2022-08-19T04:06:45;19.30;99.90
31747;DHT22;18319;48.974;8.462;2022-08-19T04:09:14;19.30;99.90
31747;DHT22;18319;48.974;8.462;2022-08-19T04:11:45;19.30;99.90
31747;DHT22;18319;48.974;8.462;2022-08-19T04:14:15;19.30;99.90
31747;DHT22;18319;48.974;8.462;2022-08-19T04:16:43;19.30;99.90
31747;DHT22;18319;48.974;8.462;2022-08-19T04:19:09;19.30;99.90
31747;DHT22;18319;48.974;8.462;2022-08-19T04:21:37;19.20;99.90
31747;DHT22;18319;48.974;8.462;2022-08-19T04:24:05;19.20;99.90
31747;DHT22;18319;48.974;8.462;2022-08-19T04:26:35;19.20;99.90
31747;DHT22;18319;48.974;8.462;2022-08-19T04:29:05;19.20;99.90
31747;DHT22;18319;48.974;8.462;2022-08-19T04:31:32;19.20;99.90
31747;DHT22;18319;48.974;8.462;2022-08-19T04:34:03;19.20;99.90
31747;DHT22;18319;48.974;8.462;2022-08-19T04:36:32;19.30;99.90
31747;DHT22;18319;48.974;8.462;2022-08-19T04:39:02;19.30;99.90
31747;DHT22;18319;48.974;8.462;2022-08-19T04:41:29;19.30;99.90
31747;DHT22;18319;48.974;8.462;2022-08-19T04:44:14;19.30;99.90
31747;DHT22;18319;48.974;8.462;2022-08-19T04:46:44;19.30;99.90
31747;DHT22;18319;48.974;8.462;2022-08-19T04:49:11;19.40;99.90
31747;DHT22;18319;48.974;8.462;2022-08-19T04:51:40;19.40;99.90
31747;DHT22;18319;48.974;8.462;2022-08-19T04:54:08;19.40;99.90
31747;DHT22;18319;48.974;8.462;2022-08-19T04:56:35;19.50;99.90
31747;DHT22;18319;48.974;8.462;2022-08-19T04:59:02;19.50;99.90
31747;DHT22;18319;48.974;8.462;2022-08-19T05:01:32;19.60;99.90
31747;DHT22;18319;48.974;8.462;2022-08-19T05:04:01;19.60;99.90
31747;DHT22;18319;48.974;8.462;2022-08-19T05:06:30;19.70;99.90
31747;DHT22;18319;48.974;8.462;2022-08-19T05:08:59;19.70;99.90
31747;DHT22;18319;48.974;8.462;2022-08-19T05:11:28;19.80;99.90
31747;DHT22;18319;48.974;8.462;2022-08-19T05:13:56;19.90;99.90
31747;DHT22;18319;48.974;8.462;2022-08-19T05:16:25;19.90;99.90
31747;DHT22;18319;48.974;8.462;2022-08-19T05:18:54;20.00;99.90
31747;DHT22;18319;48.974;8.462;2022-08-19T05:21:40;20.00;99.90
31747;DHT22;18319;48.974;8.462;2022-08-19T05:24:25;20.00;99.90
31747;DHT22;18319;48.974;8.462;2022-08-19T05:26:54;20.00;99.90
31747;DHT22;18319;48.974;8.462;2022-08-19T05:29:23;20.00;99.90
31747;DHT22;18319;48.974;8.462;2022-08-19T05:31:51;20.00;99.90
31747;DHT22;18319;48.974;8.462;2022-08-19T05:34:22;20.00;99.90
31747;DHT22;18319;48.974;8.462;2022-08-19T05:36:51;20.00;99.90
31747;DHT22;18319;48.974;8.462;2022-08-19T05:39:23;20.00;99.90
31747;DHT22;18319;48.974;8.462;2022-08-19T05:41:53;20.00;99.90
31747;DHT22;18319;48.974;8.462;2022-08-19T05:44:22;20.00;99.90
31747;DHT22;18319;48.974;8.462;2022-08-19T05:46:50;20.10;99.90
31747;DHT22;18319;48.974;8.462;2022-08-19T05:49:21;20.10;99.90
31747;DHT22;18319;48.974;8.462;2022-08-19T05:51:48;20.10;99.90
31747;DHT22;18319;48.974;8.462;2022-08-19T05:54:15;20.10;99.90
31747;DHT22;18319;48.974;8.462;2022-08-19T05:56:43;20.20;99.90
31747;DHT22;18319;48.974;8.462;2022-08-19T05:59:14;20.20;99.90
31747;DHT22;18319;48.974;8.462;2022-08-19T06:01:43;20.20;99.90
31747;DHT22;18319;48.974;8.462;2022-08-19T06:04:11;20.30;99.90
31747;DHT22;18319;48.974;8.462;2022-08-19T06:06:40;20.30;99.90
31747;DHT22;18319;48.974;8.462;2022-08-19T06:09:08;20.30;99.90
31747;DHT22;18319;48.974;8.462;2022-08-19T06:11:37;20.40;99.90
31747;DHT22;18319;48.974;8.462;2022-08-19T06:14:07;20.40;99.90
31747;DHT22;18319;48.974;8.462;2022-08-19T06:16:34;20.40;99.90
31747;DHT22;18319;48.974;8.462;2022-08-19T06:19:03;20.40;99.90
31747;DHT22;18319;48.974;8.462;2022-08-19T06:21:33;20.50;99.90
31747;DHT22;18319;48.974;8.462;2022-08-19T06:24:01;20.50;99.90
31747;DHT22;18319;48.974;8.462;2022-08-19T06:26:29;20.60;99.90
31747;DHT22;18319;48.974;8.462;2022-08-19T06:28:56;20.60;99.90
31747;DHT22;18319;48.974;8.462;2022-08-19T06:31:25;20.70;99.90
31747;DHT22;18319;48.974;8.462;2022-08-19T06:33:52;20.80;99.90
31747;DHT22;18319;48.974;8.462;2022-08-19T06:36:21;20.80;99.90
31747;DHT22;18319;48.974;8.462;2022-08-19T06:38:57;20.90;99.90
31747;DHT22;18319;48.974;8.462;2022-08-19T06:41:25;21.00;99.90
31747;DHT22;18319;48.974;8.462;2022-08-19T06:43:53;21.10;99.90
31747;DHT22;18319;48.974;8.462;2022-08-19T06:46:20;21.20;99.90
31747;DHT22;18319;48.974;8.462;2022-08-19T06:48:48;21.30;99.90
31747;DHT22;18319;48.974;8.462;2022-08-19T06:51:16;21.50;99.90
31747;DHT22;18319;48.974;8.462;2022-08-19T06:53:44;21.60;99.70
31747;DHT22;18319;48.974;8.462;2022-08-19T06:56:13;21.70;98.60
31747;DHT22;18319;48.974;8.462;2022-08-19T06:58:41;21.80;97.80
31747;DHT22;18319;48.974;8.462;2022-08-19T07:01:08;21.90;96.70
31747;DHT22;18319;48.974;8.462;2022-08-19T07:03:36;22.10;95.10
31747;DHT22;18319;48.974;8.462;2022-08-19T07:06:04;22.20;93.60
31747;DHT22;18319;48.974;8.462;2022-08-19T07:08:32;22.40;89.40
31747;DHT22;18319;48.974;8.462;2022-08-19T07:11:02;22.40;85.10
31747;DHT22;18319;48.974;8.462;2022-08-19T07:13:28;22.50;82.50
31747;DHT22;18319;48.974;8.462;2022-08-19T07:16:04;22.60;78.80
31747;DHT22;18319;48.974;8.462;2022-08-19T07:18:31;22.60;76.70
31747;DHT22;18319;48.974;8.462;2022-08-19T07:21:03;22.70;76.20
31747;DHT22;18319;48.974;8.462;2022-08-19T07:23:30;22.70;75.50
31747;DHT22;18319;48.974;8.462;2022-08-19T07:25:57;22.70;75.40
31747;DHT22;18319;48.974;8.462;2022-08-19T07:28:24;22.60;76.70
31747;DHT22;18319;48.974;8.462;2022-08-19T07:30:51;22.60;75.50
31747;DHT22;18319;48.974;8.462;2022-08-19T07:33:19;22.60;74.90
31747;DHT22;18319;48.974;8.462;2022-08-19T07:35:46;22.70;75.30
31747;DHT22;18319;48.974;8.462;2022-08-19T07:38:15;22.70;74.50
31747;DHT22;18319;48.974;8.462;2022-08-19T07:40:42;22.80;73.30
31747;DHT22;18319;48.974;8.462;2022-08-19T07:43:09;22.90;72.90
31747;DHT22;18319;48.974;8.462;2022-08-19T07:45:35;23.10;69.90
31747;DHT22;18319;48.974;8.462;2022-08-19T07:48:04;23.20;69.30
31747;DHT22;18319;48.974;8.462;2022-08-19T07:50:32;23.20;68.70
31747;DHT22;18319;48.974;8.462;2022-08-19T07:52:59;23.10;67.40
31747;DHT22;18319;48.974;8.462;2022-08-19T07:55:26;23.10;65.10
31747;DHT22;18319;48.974;8.462;2022-08-19T07:57:53;23.10;62.10
31747;DHT22;18319;48.974;8.462;2022-08-19T08:00:20;23.00;62.80
31747;DHT22;18319;48.974;8.462;2022-08-19T08:02:47;23.00;63.30
31747;DHT22;18319;48.974;8.462;2022-08-19T08:05:14;23.00;63.20
31747;DHT22;18319;48.974;8.462;2022-08-19T08:07:59;23.00;59.30
31747;DHT22;18319;48.974;8.462;2022-08-19T08:10:43;23.00;61.20
31747;DHT22;18319;48.974;8.462;2022-08-19T08:13:10;23.20;59.10
31747;DHT22;18319;48.974;8.462;2022-08-19T08:15:38;23.50;58.10
31747;DHT22;18319;48.974;8.462;2022-08-19T08:18:05;23.80;56.10
31747;DHT22;18319;48.974;8.462;2022-08-19T08:20:32;24.10;55.00
31747;DHT22;18319;48.974;8.462;2022-08-19T08:23:00;24.30;53.60
31747;DHT22;18319;48.974;8.462;2022-08-19T08:25:45;24.60;53.50
31747;DHT22;18319;48.974;8.462;2022-08-19T08:28:12;24.60;51.00
31747;DHT22;18319;48.974;8.462;2022-08-19T08:30:39;24.70;51.30
31747;DHT22;18319;48.974;8.462;2022-08-19T08:33:07;24.60;48.40
31747;DHT22;18319;48.974;8.462;2022-08-19T08:35:35;24.70;49.80
31747;DHT22;18319;48.974;8.462;2022-08-19T08:38:03;24.80;48.30
31747;DHT22;18319;48.974;8.462;2022-08-19T08:40:38;24.90;47.80
31747;DHT22;18319;48.974;8.462;2022-08-19T08:43:07;25.10;47.70
31747;DHT22;18319;48.974;8.462;2022-08-19T08:45:40;25.30;48.50
31747;DHT22;18319;48.974;8.462;2022-08-19T08:48:14;25.70;46.80
31747;DHT22;18319;48.974;8.462;2022-08-19T08:50:45;26.40;45.30
31747;DHT22;18319;48.974;8.462;2022-08-19T08:53:16;27.40;43.20
31747;DHT22;18319;48.974;8.462;2022-08-19T08:55:44;28.10;39.30
31747;DHT22;18319;48.974;8.462;2022-08-19T08:58:16;28.80;35.50
31747;DHT22;18319;48.974;8.462;2022-08-19T09:00:47;29.10;34.20
31747;DHT22;18319;48.974;8.462;2022-08-19T09:03:17;28.90;33.20
31747;DHT22;18319;48.974;8.462;2022-08-19T09:05:53;28.80;31.90
31747;DHT22;18319;48.974;8.462;2022-08-19T09:08:38;28.80;32.70
31747;DHT22;18319;48.974;8.462;2022-08-19T09:11:09;29.00;32.90
31747;DHT22;18319;48.974;8.462;2022-08-19T09:13:44;29.30;31.10
31747;DHT22;18319;48.974;8.462;2022-08-19T09:16:18;29.50;29.50
31747;DHT22;18319;48.974;8.462;2022-08-19T09:18:48;29.50;28.40
31747;DHT22;18319;48.974;8.462;2022-08-19T09:21:19;29.50;29.50
31747;DHT22;18319;48.974;8.462;2022-08-19T09:23:47;29.30;30.50
31747;DHT22;18319;48.974;8.462;2022-08-19T09:26:15;29.00;29.10
31747;DHT22;18319;48.974;8.462;2022-08-19T09:28:44;28.50;28.60
31747;DHT22;18319;48.974;8.462;2022-08-19T09:31:11;28.30;29.80
31747;DHT22;18319;48.974;8.462;2022-08-19T09:33:38;28.30;31.20
31747;DHT22;18319;48.974;8.462;2022-08-19T09:36:08;28.50;30.50
31747;DHT22;18319;48.974;8.462;2022-08-19T09:38:36;28.60;29.40
31747;DHT22;18319;48.974;8.462;2022-08-19T09:41:08;28.70;29.90
31747;DHT22;18319;48.974;8.462;2022-08-19T09:43:39;28.80;29.50
31747;DHT22;18319;48.974;8.462;2022-08-19T09:46:08;28.70;27.70
31747;DHT22;18319;48.974;8.462;2022-08-19T09:48:35;28.40;29.30
31747;DHT22;18319;48.974;8.462;2022-08-19T09:51:04;28.10;29.90
31747;DHT22;18319;48.974;8.462;2022-08-19T09:53:32;28.00;30.00
31747;DHT22;18319;48.974;8.462;2022-08-19T09:55:59;27.80;30.20
31747;DHT22;18319;48.974;8.462;2022-08-19T09:58:27;27.80;30.00
31747;DHT22;18319;48.974;8.462;2022-08-19T10:00:56;27.70;30.60
31747;DHT22;18319;48.974;8.462;2022-08-19T10:03:24;27.70;30.50
31747;DHT22;18319;48.974;8.462;2022-08-19T10:05:52;27.70;31.80
31747;DHT22;18319;48.974;8.462;2022-08-19T10:08:21;27.80;31.10
31747;DHT22;18319;48.974;8.462;2022-08-19T10:10:49;28.00;31.50
31747;DHT22;18319;48.974;8.462;2022-08-19T10:13:20;28.00;29.70
31747;DHT22;18319;48.974;8.462;2022-08-19T10:15:56;27.80;29.50
31747;DHT22;18319;48.974;8.462;2022-08-19T10:18:26;27.50;28.90
31747;DHT22;18319;48.974;8.462;2022-08-19T10:21:01;27.30;29.50
31747;DHT22;18319;48.974;8.462;2022-08-19T10:23:28;27.30;29.90
31747;DHT22;18319;48.974;8.462;2022-08-19T10:25:59;27.60;30.80
31747;DHT22;18319;48.974;8.462;2022-08-19T10:28:26;27.80;30.20
31747;DHT22;18319;48.974;8.462;2022-08-19T10:30:54;27.90;29.80
31747;DHT22;18319;48.974;8.462;2022-08-19T10:33:21;28.10;29.00
31747;DHT22;18319;48.974;8.462;2022-08-19T10:35:58;28.10;29.60
31747;DHT22;18319;48.974;8.462;2022-08-19T10:38:25;28.10;29.10
31747;DHT22;18319;48.974;8.462;2022-08-19T10:40:52;28.20;28.50
31747;DHT22;18319;48.974;8.462;2022-08-19T10:43:19;28.10;28.90
31747;DHT22;18319;48.974;8.462;2022-08-19T10:45:52;28.20;28.70
31747;DHT22;18319;48.974;8.462;2022-08-19T10:48:20;28.40;28.00
31747;DHT22;18319;48.974;8.462;2022-08-19T10:50:47;28.50;27.60
31747;DHT22;18319;48.974;8.462;2022-08-19T10:53:31;28.70;26.40
31747;DHT22;18319;48.974;8.462;2022-08-19T10:55:58;28.90;27.10
31747;DHT22;18319;48.974;8.462;2022-08-19T10:58:42;28.80;27.20
31747;DHT22;18319;48.974;8.462;2022-08-19T11:01:10;28.70;25.50
31747;DHT22;18319;48.974;8.462;2022-08-19T11:03:38;28.50;26.60
31747;DHT22;18319;48.974;8.462;2022-08-19T11:06:07;28.40;26.30
31747;DHT22;18319;48.974;8.462;2022-08-19T11:08:36;28.30;26.10
31747;DHT22;18319;48.974;8.462;2022-08-19T11:11:05;28.10;25.90
31747;DHT22;18319;48.974;8.462;2022-08-19T11:13:34;28.00;27.40
31747;DHT22;18319;48.974;8.462;2022-08-19T11:16:06;27.90;26.90
31747;DHT22;18319;48.974;8.462;2022-08-19T11:18:35;27.80;28.00
31747;DHT22;18319;48.974;8.462;2022-08-19T11:21:09;27.70;27.80
31747;DHT22;18319;48.974;8.462;2022-08-19T11:23:36;27.40;28.10
31747;DHT22;18319;48.974;8.462;2022-08-19T11:26:03;27.30;28.40
31747;DHT22;18319;48.974;8.462;2022-08-19T11:28:29;27.40;28.00
31747;DHT22;18319;48.974;8.462;2022-08-19T11:30:56;27.60;28.20
31747;DHT22;18319;48.974;8.462;2022-08-19T11:33:23;27.60;27.10
31747;DHT22;18319;48.974;8.462;2022-08-19T11:35:52;27.60;28.30
31747;DHT22;18319;48.974;8.462;2022-08-19T11:38:20;27.60;28.50
31747;DHT22;18319;48.974;8.462;2022-08-19T11:40:55;27.70;29.00
31747;DHT22;18319;48.974;8.462;2022-08-19T11:43:22;27.80;28.80
31747;DHT22;18319;48.974;8.462;2022-08-19T11:45:49;27.90;27.50
31747;DHT22;18319;48.974;8.462;2022-08-19T11:48:19;27.70;27.60
31747;DHT22;18319;48.974;8.462;2022-08-19T11:50:47;27.60;27.80
31747;DHT22;18319;48.974;8.462;2022-08-19T11:53:15;27.30;28.20
31747;DHT22;18319;48.974;8.462;2022-08-19T11:55:43;27.20;28.20
31747;DHT22;18319;48.974;8.462;2022-08-19T11:58:11;27.20;29.30
31747;DHT22;18319;48.974;8.462;2022-08-19T12:00:39;27.30;28.90
31747;DHT22;18319;48.974;8.462;2022-08-19T12:03:06;27.50;29.20
31747;DHT22;18319;48.974;8.462;2022-08-19T12:05:35;27.50;29.40
31747;DHT22;18319;48.974;8.462;2022-08-19T12:08:03;27.40;29.60
31747;DHT22;18319;48.974;8.462;2022-08-19T12:10:30;27.20;28.90
31747;DHT22;18319;48.974;8.462;2022-08-19T12:12:59;27.10;29.00
31747;DHT22;18319;48.974;8.462;2022-08-19T12:15:26;27.10;29.00
31747;DHT22;18319;48.974;8.462;2022-08-19T12:17:54;27.20;28.70
31747;DHT22;18319;48.974;8.462;2022-08-19T12:20:23;27.20;28.20
31747;DHT22;18319;48.974;8.462;2022-08-19T12:22:51;27.20;27.80
31747;DHT22;18319;48.974;8.462;2022-08-19T12:25:20;27.00;28.20
31747;DHT22;18319;48.974;8.462;2022-08-19T12:27:47;26.80;29.80
31747;DHT22;18319;48.974;8.462;2022-08-19T12:30:16;26.60;30.00
31747;DHT22;18319;48.974;8.462;2022-08-19T12:32:43;26.40;30.00
31747;DHT22;18319;48.974;8.462;2022-08-19T12:35:10;26.30;29.60
31747;DHT22;18319;48.974;8.462;2022-08-19T12:37:41;26.20;29.80
31747;DHT22;18319;48.974;8.462;2022-08-19T12:40:10;26.20;30.00
31747;DHT22;18319;48.974;8.462;2022-08-19T12:42:38;26.10;30.50
31747;DHT22;18319;48.974;8.462;2022-08-19T12:45:08;26.00;29.90
31747;DHT22;18319;48.974;8.462;2022-08-19T12:47:36;25.90;30.50
31747;DHT22;18319;48.974;8.462;2022-08-19T12:50:04;25.80;32.40
31747;DHT22;18319;48.974;8.462;2022-08-19T12:52:34;25.70;31.20
31747;DHT22;18319;48.974;8.462;2022-08-19T12:55:03;25.70;31.50
31747;DHT22;18319;48.974;8.462;2022-08-19T12:57:31;25.80;31.10
31747;DHT22;18319;48.974;8.462;2022-08-19T12:59:59;25.90;31.00
31747;DHT22;18319;48.974;8.462;2022-08-19T13:02:26;25.90;31.10
31747;DHT22;18319;48.974;8.462;2022-08-19T13:04:55;26.00;31.00
31747;DHT22;18319;48.974;8.462;2022-08-19T13:07:22;26.10;30.10
31747;DHT22;18319;48.974;8.462;2022-08-19T13:09:51;26.20;30.80
31747;DHT22;18319;48.974;8.462;2022-08-19T13:12:18;26.30;29.90
31747;DHT22;18319;48.974;8.462;2022-08-19T13:14:45;26.50;29.40
31747;DHT22;18319;48.974;8.462;2022-08-19T13:17:16;26.80;29.00
31747;DHT22;18319;48.974;8.462;2022-08-19T13:19:43;27.10;27.30
31747;DHT22;18319;48.974;8.462;2022-08-19T13:22:11;27.40;27.10
31747;DHT22;18319;48.974;8.462;2022-08-19T13:24:38;27.70;27.30
31747;DHT22;18319;48.974;8.462;2022-08-19T13:27:05;27.70;26.80
31747;DHT22;18319;48.974;8.462;2022-08-19T13:29:32;27.80;25.80
31747;DHT22;18319;48.974;8.462;2022-08-19T13:32:16;27.70;25.80
31747;DHT22;18319;48.974;8.462;2022-08-19T13:35:00;27.50;25.30
31747;DHT22;18319;48.974;8.462;2022-08-19T13:37:29;27.20;25.40
31747;DHT22;18319;48.974;8.462;2022-08-19T13:40:09;27.10;25.20
31747;DHT22;18319;48.974;8.462;2022-08-19T13:42:37;26.90;25.00
31747;DHT22;18319;48.974;8.462;2022-08-19T13:45:04;26.70;24.40
31747;DHT22;18319;48.974;8.462;2022-08-19T13:47:32;26.70;25.60
31747;DHT22;18319;48.974;8.462;2022-08-19T13:49:59;26.60;25.40
31747;DHT22;18319;48.974;8.462;2022-08-19T13:52:26;26.70;25.20
31747;DHT22;18319;48.974;8.462;2022-08-19T13:54:59;26.90;25.50
31747;DHT22;18319;48.974;8.462;2022-08-19T13:57:26;27.10;25.00
31747;DHT22;18319;48.974;8.462;2022-08-19T13:59:53;27.20;22.80
31747;DHT22;18319;48.974;8.462;2022-08-19T14:02:20;27.40;23.10
31747;DHT22;18319;48.974;8.462;2022-08-19T14:04:47;27.50;22.90
31747;DHT22;18319;48.974;8.462;2022-08-19T14:07:14;27.50;22.70
31747;DHT22;18319;48.974;8.462;2022-08-19T14:09:40;27.60;24.10
31747;DHT22;18319;48.974;8.462;2022-08-19T14:12:09;27.60;21.20
31747;DHT22;18319;48.974;8.462;2022-08-19T14:14:36;27.80;22.40
31747;DHT22;18319;48.974;8.462;2022-08-19T14:17:05;27.80;22.00
31747;DHT22;18319;48.974;8.462;2022-08-19T14:19:32;27.80;20.90
31747;DHT22;18319;48.974;8.462;2022-08-19T14:21:59;27.70;20.30
31747;DHT22;18319;48.974;8.462;2022-08-19T14:24:26;27.60;20.80
31747;DHT22;18319;48.974;8.462;2022-08-19T14:26:53;27.50;21.50
31747;DHT22;18319;48.974;8.462;2022-08-19T14:29:22;27.30;22.30
31747;DHT22;18319;48.974;8.462;2022-08-19T14:31:49;27.20;21.70
31747;DHT22;18319;48.974;8.462;2022-08-19T14:34:15;27.10;22.40
31747;DHT22;18319;48.974;8.462;2022-08-19T14:36:42;27.10;22.40
31747;DHT22;18319;48.974;8.462;2022-08-19T14:39:10;27.20;22.50
31747;DHT22;18319;48.974;8.462;2022-08-19T14:41:40;27.30;23.30
31747;DHT22;18319;48.974;8.462;2022-08-19T14:44:10;27.40;23.20
31747;DHT22;18319;48.974;8.462;2022-08-19T14:46:40;27.50;23.10
31747;DHT22;18319;48.974;8.462;2022-08-19T14:49:07;27.50;22.40
31747;DHT22;18319;48.974;8.462;2022-08-19T14:51:33;27.60;22.00
31747;DHT22;18319;48.974;8.462;2022-08-19T14:54:00;27.60;22.20
31747;DHT22;18319;48.974;8.462;2022-08-19T14:56:28;27.70;22.00
31747;DHT22;18319;48.974;8.462;2022-08-19T14:58:55;27.70;21.30
31747;DHT22;18319;48.974;8.462;2022-08-19T15:01:25;27.70;22.10
31747;DHT22;18319;48.974;8.462;2022-08-19T15:03:54;27.70;22.30
31747;DHT22;18319;48.974;8.462;2022-08-19T15:06:21;27.70;21.10
31747;DHT22;18319;48.974;8.462;2022-08-19T15:08:51;27.70;23.00
31747;DHT22;18319;48.974;8.462;2022-08-19T15:11:21;27.50;22.60
31747;DHT22;18319;48.974;8.462;2022-08-19T15:13:49;27.30;23.50
31747;DHT22;18319;48.974;8.462;2022-08-19T15:16:17;27.10;23.80
31747;DHT22;18319;48.974;8.462;2022-08-19T15:18:45;26.90;23.90
31747;DHT22;18319;48.974;8.462;2022-08-19T15:21:14;26.60;24.40
31747;DHT22;18319;48.974;8.462;2022-08-19T15:23:42;26.40;24.50
31747;DHT22;18319;48.974;8.462;2022-08-19T15:26:09;26.30;24.90
31747;DHT22;18319;48.974;8.462;2022-08-19T15:28:36;26.10;24.70
31747;DHT22;18319;48.974;8.462;2022-08-19T15:31:03;26.00;25.50
31747;DHT22;18319;48.974;8.462;2022-08-19T15:33:31;25.80;25.00
31747;DHT22;18319;48.974;8.462;2022-08-19T15:36:00;25.70;24.70
31747;DHT22;18319;48.974;8.462;2022-08-19T15:38:30;25.60;26.00
31747;DHT22;18319;48.974;8.462;2022-08-19T15:40:59;25.60;25.80
31747;DHT22;18319;48.974;8.462;2022-08-19T15:43:49;25.50;25.20